sensor_id;sensor_type;location;lat;lon;timestamp;P1;durP1;ratioP1;P2;durP2;ratioP2
54517;SDS011;40423;53.176;6.002;2022-10-16T00:00:35;10.65;;;1.98;;
54517;SDS011;40423;53.176;6.002;2022-10-16T00:03:02;7.70;;;2.75;;
54517;SDS011;40423;53.176;6.002;2022-10-16T00:05:29;6.82;;;1.70;;
54517;SDS011;40423;53.176;6.002;2022-10-16T00:07:55;6.53;;;1.90;;
54517;SDS011;40423;53.176;6.002;2022-10-16T00:10:21;7.57;;;1.80;;
54517;SDS011;40423;53.176;6.002;2022-10-16T00:12:47;5.93;;;1.83;;
54517;SDS011;40423;53.176;6.002;2022-10-16T00:15:13;8.80;;;1.98;;
54517;SDS011;40423;53.176;6.002;2022-10-16T00:17:39;6.80;;;1.48;;
54517;SDS011;40423;53.176;6.002;2022-10-16T00:20:05;7.13;;;2.13;;
54517;SDS011;40423;53.176;6.002;2022-10-16T00:22:32;6.57;;;1.52;;
54517;SDS011;40423;53.176;6.002;2022-10-16T00:24:58;7.07;;;1.80;;
54517;SDS011;40423;53.176;6.002;2022-10-16T00:27:23;6.88;;;1.70;;
54517;SDS011;40423;53.176;6.002;2022-10-16T00:29:50;7.55;;;2.30;;
54517;SDS011;40423;53.176;6.002;2022-10-16T00:32:16;7.63;;;1.80;;
54517;SDS011;40423;53.176;6.002;2022-10-16T00:34:43;10.75;;;2.20;;
54517;SDS011;40423;53.176;6.002;2022-10-16T00:37:09;8.63;;;2.25;;
54517;SDS011;40423;53.176;6.002;2022-10-16T00:39:34;9.02;;;1.85;;
54517;SDS011;40423;53.176;6.002;2022-10-16T00:42:00;7.70;;;2.17;;
54517;SDS011;40423;53.176;6.002;2022-10-16T00:44:43;5.57;;;1.95;;
54517;SDS011;40423;53.176;6.002;2022-10-16T00:47:10;8.55;;;2.10;;
54517;SDS011;40423;53.176;6.002;2022-10-16T00:49:39;5.15;;;2.13;;
54517;SDS011;40423;53.176;6.002;2022-10-16T00:52:04;4.95;;;1.08;;
54517;SDS011;40423;53.176;6.002;2022-10-16T00:54:31;13.20;;;2.55;;
54517;SDS011;40423;53.176;6.002;2022-10-16T00:56:58;5.68;;;1.35;;
54517;SDS011;40423;53.176;6.002;2022-10-16T00:59:28;5.68;;;1.50;;
54517;SDS011;40423;53.176;6.002;2022-10-16T01:01:56;7.15;;;1.42;;
54517;SDS011;40423;53.176;6.002;2022-10-16T01:04:23;4.70;;;1.52;;
54517;SDS011;40423;53.176;6.002;2022-10-16T01:09:31;6.15;;;1.50;;
54517;SDS011;40423;53.176;6.002;2022-10-16T01:12:15;8.13;;;1.42;;
54517;SDS011;40423;53.176;6.002;2022-10-16T01:14:50;4.70;;;1.75;;
54517;SDS011;40423;53.176;6.002;2022-10-16T01:22:44;9.50;;;1.45;;
54517;SDS011;40423;53.176;6.002;2022-10-16T01:28:10;4.88;;;1.30;;
54517;SDS011;40423;53.176;6.002;2022-10-16T01:30:38;11.30;;;2.05;;
54517;SDS011;40423;53.176;6.002;2022-10-16T01:36:00;6.40;;;1.63;;
54517;SDS011;40423;53.176;6.002;2022-10-16T01:38:39;5.32;;;1.23;;
54517;SDS011;40423;53.176;6.002;2022-10-16T01:41:10;6.07;;;1.50;;
54517;SDS011;40423;53.176;6.002;2022-10-16T01:43:46;4.47;;;1.23;;
54517;SDS011;40423;53.176;6.002;2022-10-16T01:46:16;6.30;;;1.45;;
54517;SDS011;40423;53.176;6.002;2022-10-16T01:48:45;7.20;;;1.50;;
54517;SDS011;40423;53.176;6.002;2022-10-16T01:51:13;5.72;;;1.65;;
54517;SDS011;40423;53.176;6.002;2022-10-16T01:53:41;5.10;;;1.65;;
54517;SDS011;40423;53.176;6.002;2022-10-16T01:56:12;6.30;;;1.35;;
54517;SDS011;40423;53.176;6.002;2022-10-16T01:58:42;8.52;;;1.88;;
54517;SDS011;40423;53.176;6.002;2022-10-16T02:01:12;4.20;;;1.58;;
54517;SDS011;40423;53.176;6.002;2022-10-16T02:03:41;4.88;;;1.58;;
54517;SDS011;40423;53.176;6.002;2022-10-16T02:06:09;8.73;;;1.80;;
54517;SDS011;40423;53.176;6.002;2022-10-16T02:08:35;5.15;;;1.50;;
54517;SDS011;40423;53.176;6.002;2022-10-16T02:11:01;7.07;;;1.48;;
54517;SDS011;40423;53.176;6.002;2022-10-16T02:15:56;5.38;;;2.03;;
54517;SDS011;40423;53.176;6.002;2022-10-16T02:18:22;6.38;;;1.92;;
54517;SDS011;40423;53.176;6.002;2022-10-16T02:20:51;9.10;;;1.75;;
54517;SDS011;40423;53.176;6.002;2022-10-16T02:23:29;5.35;;;1.83;;
54517;SDS011;40423;53.176;6.002;2022-10-16T02:26:13;7.88;;;1.80;;
54517;SDS011;40423;53.176;6.002;2022-10-16T02:28:47;7.05;;;1.90;;
54517;SDS011;40423;53.176;6.002;2022-10-16T02:31:18;4.78;;;1.90;;
54517;SDS011;40423;53.176;6.002;2022-10-16T02:33:50;6.13;;;2.00;;
54517;SDS011;40423;53.176;6.002;2022-10-16T02:36:17;6.13;;;2.17;;
54517;SDS011;40423;53.176;6.002;2022-10-16T02:38:43;5.78;;;2.38;;
54517;SDS011;40423;53.176;6.002;2022-10-16T02:41:09;4.15;;;1.85;;
54517;SDS011;40423;53.176;6.002;2022-10-16T02:43:35;7.28;;;1.95;;
54517;SDS011;40423;53.176;6.002;2022-10-16T02:46:01;9.73;;;2.00;;
54517;SDS011;40423;53.176;6.002;2022-10-16T02:48:27;6.97;;;2.13;;
54517;SDS011;40423;53.176;6.002;2022-10-16T02:50:52;5.93;;;1.83;;
54517;SDS011;40423;53.176;6.002;2022-10-16T02:53:18;6.53;;;1.60;;
54517;SDS011;40423;53.176;6.002;2022-10-16T02:55:44;4.78;;;2.35;;
54517;SDS011;40423;53.176;6.002;2022-10-16T02:58:09;6.10;;;1.80;;
54517;SDS011;40423;53.176;6.002;2022-10-16T03:00:35;6.03;;;2.05;;
54517;SDS011;40423;53.176;6.002;2022-10-16T03:03:01;5.38;;;1.65;;
54517;SDS011;40423;53.176;6.002;2022-10-16T03:05:26;4.53;;;1.80;;
54517;SDS011;40423;53.176;6.002;2022-10-16T03:07:52;4.88;;;1.90;;
54517;SDS011;40423;53.176;6.002;2022-10-16T03:10:18;6.00;;;2.08;;
54517;SDS011;40423;53.176;6.002;2022-10-16T03:12:44;3.05;;;1.63;;
54517;SDS011;40423;53.176;6.002;2022-10-16T03:15:09;7.22;;;1.60;;
54517;SDS011;40423;53.176;6.002;2022-10-16T03:17:35;4.20;;;1.33;;
54517;SDS011;40423;53.176;6.002;2022-10-16T03:20:01;6.45;;;2.00;;
54517;SDS011;40423;53.176;6.002;2022-10-16T03:22:28;4.70;;;1.60;;
54517;SDS011;40423;53.176;6.002;2022-10-16T03:24:53;6.72;;;1.85;;
54517;SDS011;40423;53.176;6.002;2022-10-16T03:27:19;2.60;;;1.60;;
54517;SDS011;40423;53.176;6.002;2022-10-16T03:29:45;4.57;;;1.60;;
54517;SDS011;40423;53.176;6.002;2022-10-16T03:32:11;3.85;;;1.27;;
54517;SDS011;40423;53.176;6.002;2022-10-16T03:34:36;7.88;;;1.50;;
54517;SDS011;40423;53.176;6.002;2022-10-16T03:37:02;3.85;;;1.38;;
54517;SDS011;40423;53.176;6.002;2022-10-16T03:39:28;5.13;;;1.70;;
54517;SDS011;40423;53.176;6.002;2022-10-16T03:41:54;3.17;;;1.38;;
54517;SDS011;40423;53.176;6.002;2022-10-16T03:44:19;3.08;;;1.30;;
54517;SDS011;40423;53.176;6.002;2022-10-16T03:46:45;5.05;;;1.42;;
54517;SDS011;40423;53.176;6.002;2022-10-16T03:49:11;3.00;;;1.27;;
54517;SDS011;40423;53.176;6.002;2022-10-16T03:51:36;3.05;;;1.30;;
54517;SDS011;40423;53.176;6.002;2022-10-16T03:54:02;4.55;;;1.52;;
54517;SDS011;40423;53.176;6.002;2022-10-16T03:56:28;4.85;;;1.27;;
54517;SDS011;40423;53.176;6.002;2022-10-16T03:58:54;3.50;;;1.30;;
54517;SDS011;40423;53.176;6.002;2022-10-16T04:01:19;5.18;;;1.98;;
54517;SDS011;40423;53.176;6.002;2022-10-16T04:03:45;3.95;;;1.30;;
54517;SDS011;40423;53.176;6.002;2022-10-16T04:06:11;3.92;;;1.42;;
54517;SDS011;40423;53.176;6.002;2022-10-16T04:08:36;2.90;;;1.00;;
54517;SDS011;40423;53.176;6.002;2022-10-16T04:11:04;5.40;;;1.50;;
54517;SDS011;40423;53.176;6.002;2022-10-16T04:13:30;2.70;;;1.40;;
54517;SDS011;40423;53.176;6.002;2022-10-16T04:15:55;5.15;;;1.45;;
54517;SDS011;40423;53.176;6.002;2022-10-16T04:18:21;5.18;;;1.60;;
54517;SDS011;40423;53.176;6.002;2022-10-16T04:20:47;3.95;;;1.55;;
54517;SDS011;40423;53.176;6.002;2022-10-16T04:23:12;5.05;;;1.40;;
54517;SDS011;40423;53.176;6.002;2022-10-16T04:25:38;6.68;;;1.63;;
54517;SDS011;40423;53.176;6.002;2022-10-16T04:28:04;6.43;;;1.60;;
54517;SDS011;40423;53.176;6.002;2022-10-16T04:30:29;4.90;;;1.30;;
54517;SDS011;40423;53.176;6.002;2022-10-16T04:32:55;5.88;;;1.50;;
54517;SDS011;40423;53.176;6.002;2022-10-16T04:35:21;5.38;;;1.60;;
54517;SDS011;40423;53.176;6.002;2022-10-16T04:37:47;6.63;;;1.48;;
54517;SDS011;40423;53.176;6.002;2022-10-16T04:40:13;4.47;;;1.02;;
54517;SDS011;40423;53.176;6.002;2022-10-16T04:42:39;4.38;;;1.27;;
54517;SDS011;40423;53.176;6.002;2022-10-16T04:45:05;3.90;;;1.20;;
54517;SDS011;40423;53.176;6.002;2022-10-16T04:47:32;2.33;;;0.90;;
54517;SDS011;40423;53.176;6.002;2022-10-16T04:49:58;2.95;;;1.00;;
54517;SDS011;40423;53.176;6.002;2022-10-16T04:52:27;4.70;;;1.33;;
54517;SDS011;40423;53.176;6.002;2022-10-16T04:54:53;4.15;;;1.30;;
54517;SDS011;40423;53.176;6.002;2022-10-16T04:57:20;3.80;;;1.60;;
54517;SDS011;40423;53.176;6.002;2022-10-16T04:59:46;6.43;;;1.55;;
54517;SDS011;40423;53.176;6.002;2022-10-16T05:02:11;4.20;;;2.00;;
54517;SDS011;40423;53.176;6.002;2022-10-16T05:04:37;7.95;;;1.40;;
54517;SDS011;40423;53.176;6.002;2022-10-16T05:07:03;4.63;;;1.45;;
54517;SDS011;40423;53.176;6.002;2022-10-16T05:09:28;3.53;;;1.70;;
54517;SDS011;40423;53.176;6.002;2022-10-16T05:11:54;4.50;;;1.50;;
54517;SDS011;40423;53.176;6.002;2022-10-16T05:14:20;2.88;;;1.70;;
54517;SDS011;40423;53.176;6.002;2022-10-16T05:16:45;5.13;;;1.63;;
54517;SDS011;40423;53.176;6.002;2022-10-16T05:19:13;6.03;;;1.60;;
54517;SDS011;40423;53.176;6.002;2022-10-16T05:21:38;5.35;;;1.88;;
54517;SDS011;40423;53.176;6.002;2022-10-16T05:24:04;6.30;;;1.40;;
54517;SDS011;40423;53.176;6.002;2022-10-16T05:26:30;5.68;;;1.85;;
54517;SDS011;40423;53.176;6.002;2022-10-16T05:28:55;4.63;;;1.23;;
54517;SDS011;40423;53.176;6.002;2022-10-16T05:31:21;4.85;;;2.00;;
54517;SDS011;40423;53.176;6.002;2022-10-16T05:33:47;6.45;;;1.75;;
54517;SDS011;40423;53.176;6.002;2022-10-16T05:36:13;4.22;;;1.83;;
54517;SDS011;40423;53.176;6.002;2022-10-16T05:38:38;7.03;;;1.80;;
54517;SDS011;40423;53.176;6.002;2022-10-16T05:41:05;8.07;;;2.33;;
54517;SDS011;40423;53.176;6.002;2022-10-16T05:43:31;6.32;;;1.80;;
54517;SDS011;40423;53.176;6.002;2022-10-16T05:45:59;5.70;;;1.88;;
54517;SDS011;40423;53.176;6.002;2022-10-16T05:48:26;7.15;;;1.90;;
54517;SDS011;40423;53.176;6.002;2022-10-16T05:51:02;5.78;;;2.15;;
54517;SDS011;40423;53.176;6.002;2022-10-16T05:53:35;5.20;;;1.90;;
54517;SDS011;40423;53.176;6.002;2022-10-16T05:56:02;6.32;;;1.85;;
54517;SDS011;40423;53.176;6.002;2022-10-16T05:58:29;4.18;;;1.98;;
54517;SDS011;40423;53.176;6.002;2022-10-16T06:01:04;6.47;;;2.40;;
54517;SDS011;40423;53.176;6.002;2022-10-16T06:03:32;6.80;;;1.95;;
54517;SDS011;40423;53.176;6.002;2022-10-16T06:05:58;8.48;;;2.38;;
54517;SDS011;40423;53.176;6.002;2022-10-16T06:08:24;4.82;;;2.22;;
54517;SDS011;40423;53.176;6.002;2022-10-16T06:11:02;12.20;;;2.40;;
54517;SDS011;40423;53.176;6.002;2022-10-16T06:13:32;8.00;;;2.00;;
54517;SDS011;40423;53.176;6.002;2022-10-16T06:15:59;5.50;;;2.00;;
54517;SDS011;40423;53.176;6.002;2022-10-16T06:18:26;9.27;;;2.42;;
54517;SDS011;40423;53.176;6.002;2022-10-16T06:20:53;9.35;;;3.40;;
54517;SDS011;40423;53.176;6.002;2022-10-16T06:23:20;9.32;;;1.98;;
54517;SDS011;40423;53.176;6.002;2022-10-16T06:25:46;4.15;;;1.92;;
54517;SDS011;40423;53.176;6.002;2022-10-16T06:28:13;10.60;;;2.50;;
54517;SDS011;40423;53.176;6.002;2022-10-16T06:30:39;8.73;;;2.20;;
54517;SDS011;40423;53.176;6.002;2022-10-16T06:33:05;7.22;;;1.85;;
54517;SDS011;40423;53.176;6.002;2022-10-16T06:35:31;6.10;;;1.95;;
54517;SDS011;40423;53.176;6.002;2022-10-16T06:37:57;8.65;;;2.63;;
54517;SDS011;40423;53.176;6.002;2022-10-16T06:40:23;6.40;;;1.70;;
54517;SDS011;40423;53.176;6.002;2022-10-16T06:42:49;8.55;;;2.08;;
54517;SDS011;40423;53.176;6.002;2022-10-16T06:45:15;6.78;;;1.70;;
54517;SDS011;40423;53.176;6.002;2022-10-16T06:47:41;4.10;;;1.60;;
54517;SDS011;40423;53.176;6.002;2022-10-16T06:50:06;6.68;;;2.42;;
54517;SDS011;40423;53.176;6.002;2022-10-16T06:52:33;7.47;;;1.90;;
54517;SDS011;40423;53.176;6.002;2022-10-16T06:55:02;3.88;;;1.85;;
54517;SDS011;40423;53.176;6.002;2022-10-16T06:57:31;8.68;;;1.77;;
54517;SDS011;40423;53.176;6.002;2022-10-16T06:59:57;11.98;;;2.30;;
54517;SDS011;40423;53.176;6.002;2022-10-16T07:02:22;7.03;;;1.80;;
54517;SDS011;40423;53.176;6.002;2022-10-16T07:04:48;11.70;;;2.88;;
54517;SDS011;40423;53.176;6.002;2022-10-16T07:07:14;6.57;;;1.95;;
54517;SDS011;40423;53.176;6.002;2022-10-16T07:09:40;5.03;;;1.50;;
54517;SDS011;40423;53.176;6.002;2022-10-16T07:12:05;6.28;;;2.28;;
54517;SDS011;40423;53.176;6.002;2022-10-16T07:14:31;5.88;;;1.63;;
54517;SDS011;40423;53.176;6.002;2022-10-16T07:16:57;6.78;;;2.25;;
54517;SDS011;40423;53.176;6.002;2022-10-16T07:19:23;3.97;;;1.50;;
54517;SDS011;40423;53.176;6.002;2022-10-16T07:21:50;9.20;;;1.65;;
54517;SDS011;40423;53.176;6.002;2022-10-16T07:24:16;7.05;;;2.33;;
54517;SDS011;40423;53.176;6.002;2022-10-16T07:26:43;7.43;;;2.20;;
54517;SDS011;40423;53.176;6.002;2022-10-16T07:29:14;9.65;;;2.95;;
54517;SDS011;40423;53.176;6.002;2022-10-16T07:31:43;7.05;;;1.98;;
54517;SDS011;40423;53.176;6.002;2022-10-16T07:34:10;6.28;;;2.63;;
54517;SDS011;40423;53.176;6.002;2022-10-16T07:36:36;8.00;;;2.22;;
54517;SDS011;40423;53.176;6.002;2022-10-16T07:39:02;5.85;;;2.28;;
54517;SDS011;40423;53.176;6.002;2022-10-16T07:41:28;6.72;;;1.80;;
54517;SDS011;40423;53.176;6.002;2022-10-16T07:43:55;6.55;;;2.25;;
54517;SDS011;40423;53.176;6.002;2022-10-16T07:46:25;7.65;;;2.78;;
54517;SDS011;40423;53.176;6.002;2022-10-16T07:48:51;10.10;;;2.88;;
54517;SDS011;40423;53.176;6.002;2022-10-16T07:51:19;8.88;;;2.90;;
54517;SDS011;40423;53.176;6.002;2022-10-16T07:53:47;7.95;;;2.75;;
54517;SDS011;40423;53.176;6.002;2022-10-16T07:56:13;8.80;;;2.60;;
54517;SDS011;40423;53.176;6.002;2022-10-16T07:58:40;8.55;;;2.20;;
54517;SDS011;40423;53.176;6.002;2022-10-16T08:01:07;5.97;;;2.33;;
54517;SDS011;40423;53.176;6.002;2022-10-16T08:03:38;5.95;;;2.80;;
54517;SDS011;40423;53.176;6.002;2022-10-16T08:06:06;8.43;;;2.13;;
54517;SDS011;40423;53.176;6.002;2022-10-16T08:08:32;8.88;;;2.15;;
54517;SDS011;40423;53.176;6.002;2022-10-16T08:10:58;6.47;;;1.83;;
54517;SDS011;40423;53.176;6.002;2022-10-16T08:13:24;5.43;;;1.88;;
54517;SDS011;40423;53.176;6.002;2022-10-16T08:15:51;7.53;;;1.70;;
54517;SDS011;40423;53.176;6.002;2022-10-16T08:18:19;6.60;;;1.42;;
54517;SDS011;40423;53.176;6.002;2022-10-16T08:20:44;9.55;;;2.17;;
54517;SDS011;40423;53.176;6.002;2022-10-16T08:23:13;6.60;;;1.85;;
54517;SDS011;40423;53.176;6.002;2022-10-16T08:25:39;5.15;;;1.80;;
54517;SDS011;40423;53.176;6.002;2022-10-16T08:28:06;7.80;;;2.08;;
54517;SDS011;40423;53.176;6.002;2022-10-16T08:30:32;6.18;;;2.05;;
54517;SDS011;40423;53.176;6.002;2022-10-16T08:32:59;5.55;;;2.42;;
54517;SDS011;40423;53.176;6.002;2022-10-16T08:35:25;5.18;;;1.80;;
54517;SDS011;40423;53.176;6.002;2022-10-16T08:37:51;7.82;;;2.63;;
54517;SDS011;40423;53.176;6.002;2022-10-16T08:40:21;10.13;;;2.92;;
54517;SDS011;40423;53.176;6.002;2022-10-16T08:48:17;7.78;;;2.90;;
54517;SDS011;40423;53.176;6.002;2022-10-16T08:50:44;9.65;;;2.38;;
54517;SDS011;40423;53.176;6.002;2022-10-16T08:53:14;6.30;;;2.50;;
54517;SDS011;40423;53.176;6.002;2022-10-16T08:55:49;8.90;;;2.65;;
54517;SDS011;40423;53.176;6.002;2022-10-16T08:58:18;10.07;;;3.15;;
54517;SDS011;40423;53.176;6.002;2022-10-16T09:00:46;8.25;;;2.60;;
54517;SDS011;40423;53.176;6.002;2022-10-16T09:08:57;8.77;;;2.65;;
54517;SDS011;40423;53.176;6.002;2022-10-16T09:17:39;6.93;;;2.15;;
54517;SDS011;40423;53.176;6.002;2022-10-16T09:25:15;10.23;;;2.50;;
54517;SDS011;40423;53.176;6.002;2022-10-16T09:27:44;8.65;;;2.17;;
54517;SDS011;40423;53.176;6.002;2022-10-16T09:30:16;7.95;;;2.38;;
54517;SDS011;40423;53.176;6.002;2022-10-16T09:32:45;9.02;;;2.25;;
54517;SDS011;40423;53.176;6.002;2022-10-16T09:35:15;14.07;;;2.88;;
54517;SDS011;40423;53.176;6.002;2022-10-16T09:37:45;8.75;;;2.13;;
54517;SDS011;40423;53.176;6.002;2022-10-16T09:40:30;9.60;;;2.33;;
54517;SDS011;40423;53.176;6.002;2022-10-16T09:46:02;7.45;;;2.03;;
54517;SDS011;40423;53.176;6.002;2022-10-16T09:48:31;9.30;;;2.25;;
54517;SDS011;40423;53.176;6.002;2022-10-16T09:51:05;11.70;;;3.08;;
54517;SDS011;40423;53.176;6.002;2022-10-16T09:53:42;13.32;;;3.35;;
54517;SDS011;40423;53.176;6.002;2022-10-16T09:56:20;11.30;;;2.20;;
54517;SDS011;40423;53.176;6.002;2022-10-16T09:58:54;9.85;;;2.20;;
54517;SDS011;40423;53.176;6.002;2022-10-16T10:01:24;13.13;;;2.53;;
54517;SDS011;40423;53.176;6.002;2022-10-16T10:04:02;13.75;;;2.83;;
54517;SDS011;40423;53.176;6.002;2022-10-16T10:09:26;10.50;;;2.45;;
54517;SDS011;40423;53.176;6.002;2022-10-16T10:11:55;7.93;;;2.28;;
54517;SDS011;40423;53.176;6.002;2022-10-16T10:19:30;12.02;;;2.58;;
54517;SDS011;40423;53.176;6.002;2022-10-16T10:22:16;14.50;;;2.03;;
54517;SDS011;40423;53.176;6.002;2022-10-16T10:24:43;8.77;;;2.15;;
54517;SDS011;40423;53.176;6.002;2022-10-16T10:27:19;11.95;;;2.33;;
54517;SDS011;40423;53.176;6.002;2022-10-16T10:32:35;12.55;;;2.00;;
54517;SDS011;40423;53.176;6.002;2022-10-16T10:35:13;8.85;;;2.65;;
54517;SDS011;40423;53.176;6.002;2022-10-16T10:40:49;14.03;;;2.97;;
54517;SDS011;40423;53.176;6.002;2022-10-16T10:46:08;15.70;;;2.72;;
54517;SDS011;40423;53.176;6.002;2022-10-16T10:51:36;15.23;;;3.38;;
54517;SDS011;40423;53.176;6.002;2022-10-16T10:57:06;14.52;;;2.70;;
54517;SDS011;40423;53.176;6.002;2022-10-16T11:00:41;10.82;;;3.33;;
54517;SDS011;40423;53.176;6.002;2022-10-16T11:02:37;18.98;;;2.80;;
54517;SDS011;40423;53.176;6.002;2022-10-16T11:15:53;29.73;;;4.65;;
54517;SDS011;40423;53.176;6.002;2022-10-16T11:18:38;14.93;;;3.03;;
54517;SDS011;40423;53.176;6.002;2022-10-16T11:21:17;17.30;;;3.10;;
54517;SDS011;40423;53.176;6.002;2022-10-16T11:23:49;14.43;;;2.47;;
54517;SDS011;40423;53.176;6.002;2022-10-16T11:26:28;22.08;;;3.65;;
54517;SDS011;40423;53.176;6.002;2022-10-16T11:28:59;12.48;;;3.15;;
54517;SDS011;40423;53.176;6.002;2022-10-16T11:31:29;15.27;;;2.92;;
54517;SDS011;40423;53.176;6.002;2022-10-16T11:34:05;15.80;;;3.13;;
54517;SDS011;40423;53.176;6.002;2022-10-16T11:39:27;13.27;;;3.20;;
54517;SDS011;40423;53.176;6.002;2022-10-16T11:42:02;12.07;;;2.92;;
54517;SDS011;40423;53.176;6.002;2022-10-16T11:44:44;12.63;;;2.70;;
54517;SDS011;40423;53.176;6.002;2022-10-16T11:47:43;14.57;;;3.40;;
54517;SDS011;40423;53.176;6.002;2022-10-16T11:55:56;10.55;;;2.45;;
54517;SDS011;40423;53.176;6.002;2022-10-16T11:58:27;15.07;;;2.50;;
54517;SDS011;40423;53.176;6.002;2022-10-16T12:09:03;12.20;;;2.50;;
54517;SDS011;40423;53.176;6.002;2022-10-16T12:16:37;12.85;;;2.28;;
54517;SDS011;40423;53.176;6.002;2022-10-16T12:19:09;11.77;;;2.20;;
54517;SDS011;40423;53.176;6.002;2022-10-16T12:21:38;15.05;;;2.97;;
54517;SDS011;40423;53.176;6.002;2022-10-16T12:24:05;9.73;;;1.90;;
54517;SDS011;40423;53.176;6.002;2022-10-16T12:26:32;14.25;;;3.33;;
54517;SDS011;40423;53.176;6.002;2022-10-16T12:29:18;13.13;;;2.60;;
54517;SDS011;40423;53.176;6.002;2022-10-16T12:31:53;10.57;;;3.17;;
54517;SDS011;40423;53.176;6.002;2022-10-16T12:34:23;12.68;;;2.22;;
54517;SDS011;40423;53.176;6.002;2022-10-16T12:39:46;9.18;;;2.42;;
54517;SDS011;40423;53.176;6.002;2022-10-16T12:44:51;8.93;;;2.28;;
54517;SDS011;40423;53.176;6.002;2022-10-16T12:47:21;10.13;;;2.20;;
54517;SDS011;40423;53.176;6.002;2022-10-16T12:49:56;12.32;;;2.50;;
54517;SDS011;40423;53.176;6.002;2022-10-16T12:52:27;11.38;;;1.92;;
54517;SDS011;40423;53.176;6.002;2022-10-16T12:55:00;11.75;;;2.33;;
54517;SDS011;40423;53.176;6.002;2022-10-16T13:05:53;10.95;;;2.55;;
54517;SDS011;40423;53.176;6.002;2022-10-16T13:17:45;12.05;;;2.58;;
54517;SDS011;40423;53.176;6.002;2022-10-16T13:20:21;8.43;;;2.38;;
54517;SDS011;40423;53.176;6.002;2022-10-16T13:25:41;9.02;;;2.47;;
54517;SDS011;40423;53.176;6.002;2022-10-16T13:28:13;15.18;;;2.40;;
54517;SDS011;40423;53.176;6.002;2022-10-16T13:30:41;10.73;;;2.67;;
54517;SDS011;40423;53.176;6.002;2022-10-16T13:35:54;11.32;;;2.30;;
54517;SDS011;40423;53.176;6.002;2022-10-16T13:38:22;13.75;;;3.08;;
54517;SDS011;40423;53.176;6.002;2022-10-16T13:40:59;10.55;;;3.65;;
54517;SDS011;40423;53.176;6.002;2022-10-16T13:43:48;14.95;;;3.78;;
54517;SDS011;40423;53.176;6.002;2022-10-16T13:46:17;8.80;;;1.88;;
54517;SDS011;40423;53.176;6.002;2022-10-16T13:48:45;11.60;;;2.58;;
54517;SDS011;40423;53.176;6.002;2022-10-16T13:51:22;9.98;;;2.05;;
54517;SDS011;40423;53.176;6.002;2022-10-16T13:53:47;11.00;;;2.53;;
54517;SDS011;40423;53.176;6.002;2022-10-16T13:56:15;11.88;;;2.08;;
54517;SDS011;40423;53.176;6.002;2022-10-16T13:58:43;12.88;;;2.65;;
54517;SDS011;40423;53.176;6.002;2022-10-16T14:01:20;10.18;;;2.05;;
54517;SDS011;40423;53.176;6.002;2022-10-16T14:03:49;13.35;;;2.30;;
54517;SDS011;40423;53.176;6.002;2022-10-16T14:06:17;9.23;;;2.00;;
54517;SDS011;40423;53.176;6.002;2022-10-16T14:08:52;10.55;;;2.70;;
54517;SDS011;40423;53.176;6.002;2022-10-16T14:11:26;8.32;;;2.20;;
54517;SDS011;40423;53.176;6.002;2022-10-16T14:13:51;14.30;;;2.75;;
54517;SDS011;40423;53.176;6.002;2022-10-16T14:16:19;10.55;;;2.70;;
54517;SDS011;40423;53.176;6.002;2022-10-16T14:21:25;10.60;;;2.13;;
54517;SDS011;40423;53.176;6.002;2022-10-16T14:23:52;8.93;;;2.58;;
54517;SDS011;40423;53.176;6.002;2022-10-16T14:26:20;13.18;;;3.38;;
54517;SDS011;40423;53.176;6.002;2022-10-16T14:28:49;10.63;;;3.08;;
54517;SDS011;40423;53.176;6.002;2022-10-16T14:31:33;9.88;;;2.53;;
54517;SDS011;40423;53.176;6.002;2022-10-16T14:34:01;11.60;;;3.08;;
54517;SDS011;40423;53.176;6.002;2022-10-16T14:36:27;17.85;;;4.82;;
54517;SDS011;40423;53.176;6.002;2022-10-16T14:38:59;12.00;;;2.80;;
54517;SDS011;40423;53.176;6.002;2022-10-16T14:41:27;9.37;;;3.00;;
54517;SDS011;40423;53.176;6.002;2022-10-16T14:43:55;14.32;;;3.83;;
54517;SDS011;40423;53.176;6.002;2022-10-16T14:46:33;11.00;;;2.63;;
54517;SDS011;40423;53.176;6.002;2022-10-16T14:49:05;7.25;;;2.08;;
54517;SDS011;40423;53.176;6.002;2022-10-16T14:51:44;8.73;;;2.20;;
54517;SDS011;40423;53.176;6.002;2022-10-16T14:54:11;15.48;;;3.58;;
54517;SDS011;40423;53.176;6.002;2022-10-16T14:56:46;8.35;;;1.75;;
54517;SDS011;40423;53.176;6.002;2022-10-16T14:59:14;15.35;;;3.05;;
54517;SDS011;40423;53.176;6.002;2022-10-16T15:01:50;9.75;;;1.77;;
54517;SDS011;40423;53.176;6.002;2022-10-16T15:04:16;11.55;;;2.00;;
54517;SDS011;40423;53.176;6.002;2022-10-16T15:06:42;10.57;;;1.67;;
54517;SDS011;40423;53.176;6.002;2022-10-16T15:09:08;8.77;;;2.08;;
54517;SDS011;40423;53.176;6.002;2022-10-16T15:11:34;11.10;;;2.50;;
54517;SDS011;40423;53.176;6.002;2022-10-16T15:14:00;13.30;;;2.42;;
54517;SDS011;40423;53.176;6.002;2022-10-16T15:16:26;12.07;;;2.55;;
54517;SDS011;40423;53.176;6.002;2022-10-16T15:18:52;10.05;;;2.33;;
54517;SDS011;40423;53.176;6.002;2022-10-16T15:21:28;10.95;;;2.03;;
54517;SDS011;40423;53.176;6.002;2022-10-16T15:23:56;12.40;;;2.40;;
54517;SDS011;40423;53.176;6.002;2022-10-16T15:26:24;12.57;;;2.92;;
54517;SDS011;40423;53.176;6.002;2022-10-16T15:28:51;8.82;;;2.65;;
54517;SDS011;40423;53.176;6.002;2022-10-16T15:31:17;12.68;;;2.53;;
54517;SDS011;40423;53.176;6.002;2022-10-16T15:33:43;10.65;;;2.45;;
54517;SDS011;40423;53.176;6.002;2022-10-16T15:36:12;11.25;;;3.17;;
54517;SDS011;40423;53.176;6.002;2022-10-16T15:38:38;11.48;;;2.65;;
54517;SDS011;40423;53.176;6.002;2022-10-16T15:41:04;10.35;;;1.90;;
54517;SDS011;40423;53.176;6.002;2022-10-16T15:43:30;10.98;;;2.78;;
54517;SDS011;40423;53.176;6.002;2022-10-16T15:46:00;10.88;;;2.25;;
54517;SDS011;40423;53.176;6.002;2022-10-16T15:48:26;16.15;;;2.63;;
54517;SDS011;40423;53.176;6.002;2022-10-16T15:50:52;16.67;;;2.58;;
54517;SDS011;40423;53.176;6.002;2022-10-16T15:53:18;10.23;;;2.25;;
54517;SDS011;40423;53.176;6.002;2022-10-16T15:55:44;11.45;;;1.98;;
54517;SDS011;40423;53.176;6.002;2022-10-16T15:58:09;12.30;;;2.35;;
54517;SDS011;40423;53.176;6.002;2022-10-16T16:00:35;13.93;;;2.83;;
54517;SDS011;40423;53.176;6.002;2022-10-16T16:03:01;17.33;;;2.97;;
54517;SDS011;40423;53.176;6.002;2022-10-16T16:05:26;12.93;;;2.05;;
54517;SDS011;40423;53.176;6.002;2022-10-16T16:07:52;7.47;;;2.10;;
54517;SDS011;40423;53.176;6.002;2022-10-16T16:10:18;11.25;;;2.50;;
54517;SDS011;40423;53.176;6.002;2022-10-16T16:12:49;13.73;;;2.45;;
54517;SDS011;40423;53.176;6.002;2022-10-16T16:15:17;13.02;;;2.33;;
54517;SDS011;40423;53.176;6.002;2022-10-16T16:17:44;12.70;;;2.40;;
54517;SDS011;40423;53.176;6.002;2022-10-16T16:20:10;15.30;;;2.53;;
54517;SDS011;40423;53.176;6.002;2022-10-16T16:22:36;12.13;;;2.70;;
54517;SDS011;40423;53.176;6.002;2022-10-16T16:25:02;11.45;;;1.92;;
54517;SDS011;40423;53.176;6.002;2022-10-16T16:27:28;12.07;;;2.13;;
54517;SDS011;40423;53.176;6.002;2022-10-16T16:29:58;9.57;;;2.33;;
54517;SDS011;40423;53.176;6.002;2022-10-16T16:32:24;8.30;;;2.17;;
54517;SDS011;40423;53.176;6.002;2022-10-16T16:34:50;11.60;;;2.85;;
54517;SDS011;40423;53.176;6.002;2022-10-16T16:37:15;12.65;;;2.33;;
54517;SDS011;40423;53.176;6.002;2022-10-16T16:39:41;9.05;;;2.95;;
54517;SDS011;40423;53.176;6.002;2022-10-16T16:42:07;10.82;;;3.03;;
54517;SDS011;40423;53.176;6.002;2022-10-16T16:44:35;13.13;;;2.90;;
54517;SDS011;40423;53.176;6.002;2022-10-16T16:47:02;9.45;;;2.25;;
54517;SDS011;40423;53.176;6.002;2022-10-16T16:49:28;18.85;;;2.63;;
54517;SDS011;40423;53.176;6.002;2022-10-16T16:51:54;11.57;;;2.80;;
54517;SDS011;40423;53.176;6.002;2022-10-16T16:54:20;10.77;;;2.60;;
54517;SDS011;40423;53.176;6.002;2022-10-16T16:56:46;13.82;;;3.00;;
54517;SDS011;40423;53.176;6.002;2022-10-16T16:59:13;10.43;;;2.30;;